sensor_id;sensor_type;location;lat;lon;timestamp;temperature;humidity
29891;DHT22;16759;49.540;8.642;2022-11-12T00:00:23;7.40;99.90
29891;DHT22;16759;49.540;8.642;2022-11-12T00:02:48;7.30;99.90
29891;DHT22;16759;49.540;8.642;2022-11-12T00:05:13;7.40;99.90
29891;DHT22;16759;49.540;8.642;2022-11-12T00:07:39;7.40;99.90
29891;DHT22;16759;49.540;8.642;2022-11-12T00:10:04;7.40;99.90
29891;DHT22;16759;49.540;8.642;2022-11-12T00:12:30;7.40;99.90
29891;DHT22;16759;49.540;8.642;2022-11-12T00:14:55;7.50;99.90
29891;DHT22;16759;49.540;8.642;2022-11-12T00:17:21;7.60;99.90
29891;DHT22;16759;49.540;8.642;2022-11-12T00:19:46;7.30;99.90
29891;DHT22;16759;49.540;8.642;2022-11-12T00:22:12;7.40;99.90
29891;DHT22;16759;49.540;8.642;2022-11-12T00:24:37;7.20;99.90
29891;DHT22;16759;49.540;8.642;2022-11-12T00:27:03;7.40;99.90
29891;DHT22;16759;49.540;8.642;2022-11-12T00:29:28;7.30;99.90
29891;DHT22;16759;49.540;8.642;2022-11-12T00:31:54;7.20;99.90
29891;DHT22;16759;49.540;8.642;2022-11-12T00:34:19;7.40;99.90
29891;DHT22;16759;49.540;8.642;2022-11-12T00:36:45;7.30;99.90
29891;DHT22;16759;49.540;8.642;2022-11-12T00:39:12;7.50;99.90
29891;DHT22;16759;49.540;8.642;2022-11-12T00:41:38;7.20;99.90
29891;DHT22;16759;49.540;8.642;2022-11-12T00:44:03;7.60;99.90
29891;DHT22;16759;49.540;8.642;2022-11-12T00:46:29;7.40;99.90
29891;DHT22;16759;49.540;8.642;2022-11-12T00:48:55;7.30;99.90
29891;DHT22;16759;49.540;8.642;2022-11-12T00:51:20;7.50;99.90
29891;DHT22;16759;49.540;8.642;2022-11-12T00:53:49;7.50;99.90
29891;DHT22;16759;49.540;8.642;2022-11-12T00:56:14;7.50;99.90
29891;DHT22;16759;49.540;8.642;2022-11-12T00:58:40;7.60;99.90
29891;DHT22;16759;49.540;8.642;2022-11-12T01:01:06;7.70;99.90
29891;DHT22;16759;49.540;8.642;2022-11-12T01:03:32;7.60;99.90
29891;DHT22;16759;49.540;8.642;2022-11-12T01:06:03;7.60;99.90
29891;DHT22;16759;49.540;8.642;2022-11-12T01:08:29;7.30;99.90
29891;DHT22;16759;49.540;8.642;2022-11-12T01:11:04;7.40;99.90
29891;DHT22;16759;49.540;8.642;2022-11-12T01:13:32;7.20;99.90
29891;DHT22;16759;49.540;8.642;2022-11-12T01:15:57;7.40;99.90
29891;DHT22;16759;49.540;8.642;2022-11-12T01:18:25;7.20;99.90
29891;DHT22;16759;49.540;8.642;2022-11-12T01:20:51;7.40;99.90
29891;DHT22;16759;49.540;8.642;2022-11-12T01:23:16;7.30;99.90
29891;DHT22;16759;49.540;8.642;2022-11-12T01:25:42;7.40;99.90
29891;DHT22;16759;49.540;8.642;2022-11-12T01:28:07;7.30;99.90
29891;DHT22;16759;49.540;8.642;2022-11-12T01:30:33;7.30;99.90
29891;DHT22;16759;49.540;8.642;2022-11-12T01:32:58;7.40;99.90
29891;DHT22;16759;49.540;8.642;2022-11-12T01:35:23;7.40;99.90
29891;DHT22;16759;49.540;8.642;2022-11-12T01:37:51;7.20;99.90
29891;DHT22;16759;49.540;8.642;2022-11-12T01:40:17;7.40;99.90
29891;DHT22;16759;49.540;8.642;2022-11-12T01:42:42;7.30;99.90
29891;DHT22;16759;49.540;8.642;2022-11-12T01:45:14;7.30;99.90
29891;DHT22;16759;49.540;8.642;2022-11-12T01:47:42;7.30;99.90
29891;DHT22;16759;49.540;8.642;2022-11-12T01:52:47;7.40;99.90
29891;DHT22;16759;49.540;8.642;2022-11-12T01:55:24;7.20;99.90
29891;DHT22;16759;49.540;8.642;2022-11-12T01:57:51;7.10;99.90
29891;DHT22;16759;49.540;8.642;2022-11-12T02:00:18;7.50;99.90
29891;DHT22;16759;49.540;8.642;2022-11-12T02:02:50;7.40;99.90
29891;DHT22;16759;49.540;8.642;2022-11-12T02:05:17;7.40;99.90
29891;DHT22;16759;49.540;8.642;2022-11-12T02:07:43;7.20;99.90
29891;DHT22;16759;49.540;8.642;2022-11-12T02:10:10;7.10;99.90
29891;DHT22;16759;49.540;8.642;2022-11-12T02:12:35;7.30;99.90
29891;DHT22;16759;49.540;8.642;2022-11-12T02:15:20;7.20;99.90
29891;DHT22;16759;49.540;8.642;2022-11-12T02:17:45;6.90;99.90
29891;DHT22;16759;49.540;8.642;2022-11-12T02:20:11;7.20;99.90
29891;DHT22;16759;49.540;8.642;2022-11-12T02:22:37;6.90;99.90
29891;DHT22;16759;49.540;8.642;2022-11-12T02:25:05;7.00;99.90
29891;DHT22;16759;49.540;8.642;2022-11-12T02:27:30;7.20;99.90
29891;DHT22;16759;49.540;8.642;2022-11-12T02:29:56;7.00;99.90
29891;DHT22;16759;49.540;8.642;2022-11-12T02:32:21;7.20;99.90
29891;DHT22;16759;49.540;8.642;2022-11-12T02:34:47;7.10;99.90
29891;DHT22;16759;49.540;8.642;2022-11-12T02:37:12;7.30;99.90
29891;DHT22;16759;49.540;8.642;2022-11-12T02:39:38;7.00;99.90
29891;DHT22;16759;49.540;8.642;2022-11-12T02:42:03;6.90;99.90
29891;DHT22;16759;49.540;8.642;2022-11-12T02:44:31;6.90;99.90
29891;DHT22;16759;49.540;8.642;2022-11-12T02:46:57;6.90;99.90
29891;DHT22;16759;49.540;8.642;2022-11-12T02:49:22;6.80;99.90
29891;DHT22;16759;49.540;8.642;2022-11-12T02:51:48;6.70;99.90
29891;DHT22;16759;49.540;8.642;2022-11-12T02:54:13;6.90;99.90
29891;DHT22;16759;49.540;8.642;2022-11-12T02:56:39;7.00;99.90
29891;DHT22;16759;49.540;8.642;2022-11-12T02:59:04;6.70;99.90
29891;DHT22;16759;49.540;8.642;2022-11-12T03:01:30;6.90;99.90
29891;DHT22;16759;49.540;8.642;2022-11-12T03:03:55;6.70;99.90
29891;DHT22;16759;49.540;8.642;2022-11-12T03:06:21;6.80;99.90
29891;DHT22;16759;49.540;8.642;2022-11-12T03:08:46;6.50;99.90
29891;DHT22;16759;49.540;8.642;2022-11-12T03:11:13;6.60;99.90
29891;DHT22;16759;49.540;8.642;2022-11-12T03:13:39;6.70;99.90
29891;DHT22;16759;49.540;8.642;2022-11-12T03:16:04;6.80;99.90
29891;DHT22;16759;49.540;8.642;2022-11-12T03:18:30;6.80;99.90
29891;DHT22;16759;49.540;8.642;2022-11-12T03:20:55;6.80;99.90
29891;DHT22;16759;49.540;8.642;2022-11-12T03:23:21;6.90;99.90
29891;DHT22;16759;49.540;8.642;2022-11-12T03:25:46;6.60;99.90
29891;DHT22;16759;49.540;8.642;2022-11-12T03:28:12;6.60;99.90
29891;DHT22;16759;49.540;8.642;2022-11-12T03:30:39;6.60;99.90
29891;DHT22;16759;49.540;8.642;2022-11-12T03:33:06;6.70;99.90
29891;DHT22;16759;49.540;8.642;2022-11-12T03:35:32;6.50;99.90
29891;DHT22;16759;49.540;8.642;2022-11-12T03:38:00;6.80;99.90
29891;DHT22;16759;49.540;8.642;2022-11-12T03:40:26;6.70;99.90
29891;DHT22;16759;49.540;8.642;2022-11-12T03:42:52;6.80;99.90
29891;DHT22;16759;49.540;8.642;2022-11-12T03:45:19;6.60;99.90
29891;DHT22;16759;49.540;8.642;2022-11-12T03:47:48;6.60;99.90
29891;DHT22;16759;49.540;8.642;2022-11-12T03:50:16;6.60;99.90
29891;DHT22;16759;49.540;8.642;2022-11-12T03:52:54;6.40;99.90
29891;DHT22;16759;49.540;8.642;2022-11-12T03:55:21;6.70;99.90
29891;DHT22;16759;49.540;8.642;2022-11-12T03:57:47;6.80;99.90
29891;DHT22;16759;49.540;8.642;2022-11-12T04:00:15;6.90;99.90
29891;DHT22;16759;49.540;8.642;2022-11-12T04:02:41;6.80;99.90
29891;DHT22;16759;49.540;8.642;2022-11-12T04:05:06;6.80;99.90
29891;DHT22;16759;49.540;8.642;2022-11-12T04:07:57;6.70;99.90
29891;DHT22;16759;49.540;8.642;2022-11-12T04:10:42;6.60;99.90
29891;DHT22;16759;49.540;8.642;2022-11-12T04:13:07;6.50;99.90
29891;DHT22;16759;49.540;8.642;2022-11-12T04:15:52;6.80;99.90
29891;DHT22;16759;49.540;8.642;2022-11-12T04:18:36;6.80;99.90
29891;DHT22;16759;49.540;8.642;2022-11-12T04:21:27;6.80;99.90
29891;DHT22;16759;49.540;8.642;2022-11-12T04:24:13;6.70;99.90
29891;DHT22;16759;49.540;8.642;2022-11-12T04:26:59;6.50;99.90
29891;DHT22;16759;49.540;8.642;2022-11-12T04:29:24;6.70;99.90
29891;DHT22;16759;49.540;8.642;2022-11-12T04:32:08;6.50;99.90
29891;DHT22;16759;49.540;8.642;2022-11-12T04:34:36;6.60;99.90
29891;DHT22;16759;49.540;8.642;2022-11-12T04:37:02;6.40;99.90
29891;DHT22;16759;49.540;8.642;2022-11-12T04:39:27;6.30;99.90
29891;DHT22;16759;49.540;8.642;2022-11-12T04:41:53;6.40;99.90
29891;DHT22;16759;49.540;8.642;2022-11-12T04:44:37;6.40;99.90
29891;DHT22;16759;49.540;8.642;2022-11-12T04:47:24;6.60;99.90
29891;DHT22;16759;49.540;8.642;2022-11-12T04:49:50;6.40;99.90
29891;DHT22;16759;49.540;8.642;2022-11-12T04:52:18;6.30;99.90
29891;DHT22;16759;49.540;8.642;2022-11-12T04:54:43;6.40;99.90
29891;DHT22;16759;49.540;8.642;2022-11-12T04:57:11;6.50;99.90
29891;DHT22;16759;49.540;8.642;2022-11-12T04:59:36;6.40;99.90
29891;DHT22;16759;49.540;8.642;2022-11-12T05:02:02;6.40;99.90
29891;DHT22;16759;49.540;8.642;2022-11-12T05:04:30;6.50;99.90
29891;DHT22;16759;49.540;8.642;2022-11-12T05:06:55;6.60;99.90
29891;DHT22;16759;49.540;8.642;2022-11-12T05:09:25;6.40;99.90
29891;DHT22;16759;49.540;8.642;2022-11-12T05:11:51;6.30;99.90
29891;DHT22;16759;49.540;8.642;2022-11-12T05:14:19;6.50;99.90
29891;DHT22;16759;49.540;8.642;2022-11-12T05:16:45;6.60;99.90
29891;DHT22;16759;49.540;8.642;2022-11-12T05:19:10;6.40;99.90
29891;DHT22;16759;49.540;8.642;2022-11-12T05:21:36;6.30;99.90
29891;DHT22;16759;49.540;8.642;2022-11-12T05:24:20;6.40;99.90
29891;DHT22;16759;49.540;8.642;2022-11-12T05:26:46;6.20;99.90
29891;DHT22;16759;49.540;8.642;2022-11-12T05:29:11;6.40;99.90
29891;DHT22;16759;49.540;8.642;2022-11-12T05:31:37;6.20;99.90
29891;DHT22;16759;49.540;8.642;2022-11-12T05:34:02;6.30;99.90
29891;DHT22;16759;49.540;8.642;2022-11-12T05:36:28;6.40;99.90
29891;DHT22;16759;49.540;8.642;2022-11-12T05:38:53;6.30;99.90
29891;DHT22;16759;49.540;8.642;2022-11-12T05:41:19;6.20;99.90
29891;DHT22;16759;49.540;8.642;2022-11-12T05:43:44;6.20;99.90
29891;DHT22;16759;49.540;8.642;2022-11-12T05:46:09;6.00;99.90
29891;DHT22;16759;49.540;8.642;2022-11-12T05:48:35;6.30;99.90
29891;DHT22;16759;49.540;8.642;2022-11-12T05:51:00;6.30;99.90
29891;DHT22;16759;49.540;8.642;2022-11-12T05:53:26;6.10;99.90
29891;DHT22;16759;49.540;8.642;2022-11-12T05:55:51;6.10;99.90
29891;DHT22;16759;49.540;8.642;2022-11-12T05:58:19;6.20;99.90
29891;DHT22;16759;49.540;8.642;2022-11-12T06:00:45;6.30;99.90
29891;DHT22;16759;49.540;8.642;2022-11-12T06:03:12;6.20;99.90
29891;DHT22;16759;49.540;8.642;2022-11-12T06:05:37;6.20;99.90
29891;DHT22;16759;49.540;8.642;2022-11-12T06:08:05;6.40;99.90
29891;DHT22;16759;49.540;8.642;2022-11-12T06:10:31;6.10;99.90
29891;DHT22;16759;49.540;8.642;2022-11-12T06:12:57;6.20;99.90
29891;DHT22;16759;49.540;8.642;2022-11-12T06:15:26;6.10;99.90
29891;DHT22;16759;49.540;8.642;2022-11-12T06:17:52;6.20;99.90
29891;DHT22;16759;49.540;8.642;2022-11-12T06:20:21;6.30;99.90
29891;DHT22;16759;49.540;8.642;2022-11-12T06:22:46;6.20;99.90
29891;DHT22;16759;49.540;8.642;2022-11-12T06:25:12;6.20;99.90
29891;DHT22;16759;49.540;8.642;2022-11-12T06:27:38;6.00;99.90
29891;DHT22;16759;49.540;8.642;2022-11-12T06:30:04;6.10;99.90
29891;DHT22;16759;49.540;8.642;2022-11-12T06:32:31;6.10;99.90
29891;DHT22;16759;49.540;8.642;2022-11-12T06:34:57;6.20;99.90
29891;DHT22;16759;49.540;8.642;2022-11-12T06:37:22;6.20;99.90
29891;DHT22;16759;49.540;8.642;2022-11-12T06:39:47;6.20;99.90
29891;DHT22;16759;49.540;8.642;2022-11-12T06:42:13;6.10;99.90
29891;DHT22;16759;49.540;8.642;2022-11-12T06:44:41;6.00;99.90
29891;DHT22;16759;49.540;8.642;2022-11-12T06:47:06;6.00;99.90
29891;DHT22;16759;49.540;8.642;2022-11-12T06:49:32;6.00;99.90
29891;DHT22;16759;49.540;8.642;2022-11-12T06:51:57;6.00;99.90
29891;DHT22;16759;49.540;8.642;2022-11-12T06:54:23;6.30;99.90
29891;DHT22;16759;49.540;8.642;2022-11-12T06:56:48;6.00;99.90
29891;DHT22;16759;49.540;8.642;2022-11-12T06:59:14;6.20;99.90
29891;DHT22;16759;49.540;8.642;2022-11-12T07:01:39;6.10;99.90
29891;DHT22;16759;49.540;8.642;2022-11-12T07:04:05;6.00;99.90
29891;DHT22;16759;49.540;8.642;2022-11-12T07:06:32;6.00;99.90
29891;DHT22;16759;49.540;8.642;2022-11-12T07:08:57;6.00;99.90
29891;DHT22;16759;49.540;8.642;2022-11-12T07:11:22;6.10;99.90
29891;DHT22;16759;49.540;8.642;2022-11-12T07:13:48;6.00;99.90
29891;DHT22;16759;49.540;8.642;2022-11-12T07:16:13;6.20;99.90
29891;DHT22;16759;49.540;8.642;2022-11-12T07:18:43;6.20;99.90
29891;DHT22;16759;49.540;8.642;2022-11-12T07:21:09;6.30;99.90
29891;DHT22;16759;49.540;8.642;2022-11-12T07:23:36;6.30;99.90
29891;DHT22;16759;49.540;8.642;2022-11-12T07:26:03;6.20;99.90
29891;DHT22;16759;49.540;8.642;2022-11-12T07:28:29;6.20;99.90
29891;DHT22;16759;49.540;8.642;2022-11-12T07:31:01;6.50;99.90
29891;DHT22;16759;49.540;8.642;2022-11-12T07:33:27;6.30;99.90
29891;DHT22;16759;49.540;8.642;2022-11-12T07:38:44;6.30;99.90
29891;DHT22;16759;49.540;8.642;2022-11-12T07:41:11;6.40;99.90
29891;DHT22;16759;49.540;8.642;2022-11-12T07:43:37;6.30;99.90
29891;DHT22;16759;49.540;8.642;2022-11-12T07:46:03;6.40;99.90
29891;DHT22;16759;49.540;8.642;2022-11-12T07:48:29;6.10;99.90
29891;DHT22;16759;49.540;8.642;2022-11-12T07:50:59;6.40;99.90
29891;DHT22;16759;49.540;8.642;2022-11-12T07:53:25;6.30;99.90
29891;DHT22;16759;49.540;8.642;2022-11-12T07:55:56;6.50;99.90
29891;DHT22;16759;49.540;8.642;2022-11-12T07:58:22;6.40;99.90
29891;DHT22;16759;49.540;8.642;2022-11-12T08:00:48;6.40;99.90
29891;DHT22;16759;49.540;8.642;2022-11-12T08:03:14;6.40;99.90
29891;DHT22;16759;49.540;8.642;2022-11-12T08:05:40;6.40;99.90
29891;DHT22;16759;49.540;8.642;2022-11-12T08:08:05;6.30;99.90
29891;DHT22;16759;49.540;8.642;2022-11-12T08:10:33;6.70;99.90
29891;DHT22;16759;49.540;8.642;2022-11-12T08:12:59;6.60;99.90
29891;DHT22;16759;49.540;8.642;2022-11-12T08:15:24;6.40;99.90
29891;DHT22;16759;49.540;8.642;2022-11-12T08:17:52;6.40;99.90
29891;DHT22;16759;49.540;8.642;2022-11-12T08:20:17;6.60;99.90
29891;DHT22;16759;49.540;8.642;2022-11-12T08:22:43;6.70;99.90
29891;DHT22;16759;49.540;8.642;2022-11-12T08:25:08;6.80;99.90
29891;DHT22;16759;49.540;8.642;2022-11-12T08:27:36;6.50;99.90
29891;DHT22;16759;49.540;8.642;2022-11-12T08:30:03;6.20;99.90
29891;DHT22;16759;49.540;8.642;2022-11-12T08:32:31;6.20;99.90
29891;DHT22;16759;49.540;8.642;2022-11-12T08:34:56;6.30;99.90
29891;DHT22;16759;49.540;8.642;2022-11-12T08:37:22;6.30;99.90
29891;DHT22;16759;49.540;8.642;2022-11-12T08:39:47;6.50;99.90
29891;DHT22;16759;49.540;8.642;2022-11-12T08:42:13;6.30;99.90
29891;DHT22;16759;49.540;8.642;2022-11-12T08:44:38;6.00;99.90
29891;DHT22;16759;49.540;8.642;2022-11-12T08:47:06;6.50;99.90
29891;DHT22;16759;49.540;8.642;2022-11-12T08:49:32;6.50;99.90
29891;DHT22;16759;49.540;8.642;2022-11-12T08:51:57;6.30;99.90
29891;DHT22;16759;49.540;8.642;2022-11-12T08:54:23;6.20;99.90
29891;DHT22;16759;49.540;8.642;2022-11-12T08:56:49;6.40;99.90
29891;DHT22;16759;49.540;8.642;2022-11-12T08:59:14;6.10;99.90
29891;DHT22;16759;49.540;8.642;2022-11-12T09:01:40;6.20;99.90
29891;DHT22;16759;49.540;8.642;2022-11-12T09:04:05;6.10;99.90
29891;DHT22;16759;49.540;8.642;2022-11-12T09:06:33;6.10;99.90
29891;DHT22;16759;49.540;8.642;2022-11-12T09:08:59;6.00;99.90
29891;DHT22;16759;49.540;8.642;2022-11-12T09:11:24;6.10;99.90
29891;DHT22;16759;49.540;8.642;2022-11-12T09:13:53;5.90;99.90
29891;DHT22;16759;49.540;8.642;2022-11-12T09:16:21;6.20;99.90
29891;DHT22;16759;49.540;8.642;2022-11-12T09:18:48;6.20;99.90
29891;DHT22;16759;49.540;8.642;2022-11-12T09:21:13;6.50;99.90
29891;DHT22;16759;49.540;8.642;2022-11-12T09:23:39;6.50;99.90
29891;DHT22;16759;49.540;8.642;2022-11-12T09:26:05;6.80;99.90
29891;DHT22;16759;49.540;8.642;2022-11-12T09:28:33;6.70;99.90
29891;DHT22;16759;49.540;8.642;2022-11-12T09:30:58;6.60;99.90
29891;DHT22;16759;49.540;8.642;2022-11-12T09:33:33;6.60;99.90
29891;DHT22;16759;49.540;8.642;2022-11-12T09:36:01;6.80;99.90
29891;DHT22;16759;49.540;8.642;2022-11-12T09:38:27;6.90;99.90
29891;DHT22;16759;49.540;8.642;2022-11-12T09:43:24;6.80;99.90
29891;DHT22;16759;49.540;8.642;2022-11-12T09:45:52;6.50;99.90
29891;DHT22;16759;49.540;8.642;2022-11-12T09:48:35;6.80;99.90
29891;DHT22;16759;49.540;8.642;2022-11-12T09:51:03;6.40;99.90
29891;DHT22;16759;49.540;8.642;2022-11-12T09:53:34;6.60;99.90
29891;DHT22;16759;49.540;8.642;2022-11-12T09:56:06;6.70;99.90
29891;DHT22;16759;49.540;8.642;2022-11-12T09:58:32;6.50;99.90
29891;DHT22;16759;49.540;8.642;2022-11-12T10:01:02;6.60;99.90
29891;DHT22;16759;49.540;8.642;2022-11-12T10:06:10;6.90;99.90
29891;DHT22;16759;49.540;8.642;2022-11-12T10:16:19;7.40;99.90
29891;DHT22;16759;49.540;8.642;2022-11-12T10:22:10;7.20;99.90
29891;DHT22;16759;49.540;8.642;2022-11-12T10:24:40;7.20;99.90
29891;DHT22;16759;49.540;8.642;2022-11-12T10:29:45;7.30;99.90
29891;DHT22;16759;49.540;8.642;2022-11-12T10:32:15;7.60;99.90
29891;DHT22;16759;49.540;8.642;2022-11-12T10:34:43;7.60;99.90
29891;DHT22;16759;49.540;8.642;2022-11-12T10:37:19;7.70;99.90
29891;DHT22;16759;49.540;8.642;2022-11-12T10:39:47;7.60;99.90
29891;DHT22;16759;49.540;8.642;2022-11-12T10:42:13;7.60;99.90
29891;DHT22;16759;49.540;8.642;2022-11-12T10:44:40;7.40;99.90
29891;DHT22;16759;49.540;8.642;2022-11-12T10:47:24;7.60;99.90
29891;DHT22;16759;49.540;8.642;2022-11-12T10:50:04;7.60;99.90
29891;DHT22;16759;49.540;8.642;2022-11-12T10:52:34;7.90;99.90
29891;DHT22;16759;49.540;8.642;2022-11-12T10:55:21;7.60;99.90
29891;DHT22;16759;49.540;8.642;2022-11-12T10:58:12;7.90;99.90
29891;DHT22;16759;49.540;8.642;2022-11-12T11:01:00;7.60;99.90
29891;DHT22;16759;49.540;8.642;2022-11-12T11:03:30;7.60;99.90
29891;DHT22;16759;49.540;8.642;2022-11-12T11:06:03;7.40;99.90
29891;DHT22;16759;49.540;8.642;2022-11-12T11:08:37;7.60;99.90
29891;DHT22;16759;49.540;8.642;2022-11-12T11:11:13;7.80;99.90
29891;DHT22;16759;49.540;8.642;2022-11-12T11:13:38;8.00;99.90
29891;DHT22;16759;49.540;8.642;2022-11-12T11:16:05;7.90;99.90
29891;DHT22;16759;49.540;8.642;2022-11-12T11:18:34;7.90;99.90
29891;DHT22;16759;49.540;8.642;2022-11-12T11:21:19;8.00;99.90
29891;DHT22;16759;49.540;8.642;2022-11-12T11:23:55;7.80;99.90
29891;DHT22;16759;49.540;8.642;2022-11-12T11:29:09;7.80;99.90
29891;DHT22;16759;49.540;8.642;2022-11-12T11:31:44;7.90;99.90
29891;DHT22;16759;49.540;8.642;2022-11-12T11:37:00;8.00;99.90
29891;DHT22;16759;49.540;8.642;2022-11-12T11:39:34;7.90;99.90
29891;DHT22;16759;49.540;8.642;2022-11-12T11:52:37;7.90;99.90
29891;DHT22;16759;49.540;8.642;2022-11-12T11:57:54;7.60;99.90
29891;DHT22;16759;49.540;8.642;2022-11-12T12:07:55;7.80;99.90
29891;DHT22;16759;49.540;8.642;2022-11-12T12:17:58;7.90;99.90
29891;DHT22;16759;49.540;8.642;2022-11-12T12:23:10;7.80;99.90
29891;DHT22;16759;49.540;8.642;2022-11-12T12:25:39;7.90;99.90
29891;DHT22;16759;49.540;8.642;2022-11-12T12:28:09;7.90;99.90
29891;DHT22;16759;49.540;8.642;2022-11-12T12:30:39;7.80;99.90
29891;DHT22;16759;49.540;8.642;2022-11-12T12:43:32;8.00;99.90
29891;DHT22;16759;49.540;8.642;2022-11-12T12:45:59;7.90;99.90
29891;DHT22;16759;49.540;8.642;2022-11-12T12:48:34;7.70;99.90
29891;DHT22;16759;49.540;8.642;2022-11-12T12:51:00;7.60;99.90
29891;DHT22;16759;49.540;8.642;2022-11-12T12:55:55;7.80;99.90
29891;DHT22;16759;49.540;8.642;2022-11-12T12:58:43;7.80;99.90
29891;DHT22;16759;49.540;8.642;2022-11-12T13:03:47;7.90;99.90
29891;DHT22;16759;49.540;8.642;2022-11-12T13:08:58;7.90;99.90
29891;DHT22;16759;49.540;8.642;2022-11-12T13:17:02;8.00;99.90
29891;DHT22;16759;49.540;8.642;2022-11-12T13:19:28;7.80;99.90
29891;DHT22;16759;49.540;8.642;2022-11-12T13:22:46;7.80;99.90
29891;DHT22;16759;49.540;8.642;2022-11-12T13:32:52;7.70;99.90
29891;DHT22;16759;49.540;8.642;2022-11-12T13:38:33;7.40;99.90
29891;DHT22;16759;49.540;8.642;2022-11-12T13:40:45;7.60;99.90
29891;DHT22;16759;49.540;8.642;2022-11-12T13:51:03;7.90;99.90
29891;DHT22;16759;49.540;8.642;2022-11-12T13:53:31;7.70;99.90
29891;DHT22;16759;49.540;8.642;2022-11-12T13:55:59;7.60;99.90
29891;DHT22;16759;49.540;8.642;2022-11-12T13:58:25;7.60;99.90
29891;DHT22;16759;49.540;8.642;2022-11-12T14:00:52;7.70;99.90
29891;DHT22;16759;49.540;8.642;2022-11-12T14:03:18;7.90;99.90
29891;DHT22;16759;49.540;8.642;2022-11-12T14:05:45;7.80;99.90
29891;DHT22;16759;49.540;8.642;2022-11-12T14:16:01;7.80;99.90
29891;DHT22;16759;49.540;8.642;2022-11-12T14:18:46;7.80;99.90
29891;DHT22;16759;49.540;8.642;2022-11-12T14:21:20;7.80;99.90
29891;DHT22;16759;49.540;8.642;2022-11-12T14:23:46;7.80;99.90
29891;DHT22;16759;49.540;8.642;2022-11-12T14:26:13;7.90;99.90
29891;DHT22;16759;49.540;8.642;2022-11-12T14:28:38;7.70;99.90
29891;DHT22;16759;49.540;8.642;2022-11-12T14:31:11;7.50;99.90
29891;DHT22;16759;49.540;8.642;2022-11-12T14:33:37;7.70;99.90
29891;DHT22;16759;49.540;8.642;2022-11-12T14:36:05;7.70;99.90
29891;DHT22;16759;49.540;8.642;2022-11-12T14:38:45;7.70;99.90
29891;DHT22;16759;49.540;8.642;2022-11-12T14:41:18;7.60;99.90
29891;DHT22;16759;49.540;8.642;2022-11-12T14:43:45;7.90;99.90
29891;DHT22;16759;49.540;8.642;2022-11-12T14:46:24;7.70;99.90
29891;DHT22;16759;49.540;8.642;2022-11-12T14:51:19;7.30;99.90
29891;DHT22;16759;49.540;8.642;2022-11-12T14:53:59;7.10;99.90
29891;DHT22;16759;49.540;8.642;2022-11-12T14:56:34;7.30;99.90
29891;DHT22;16759;49.540;8.642;2022-11-12T14:59:02;7.60;99.90
29891;DHT22;16759;49.540;8.642;2022-11-12T15:01:30;7.60;99.90
29891;DHT22;16759;49.540;8.642;2022-11-12T15:06:40;7.20;99.90
29891;DHT22;16759;49.540;8.642;2022-11-12T15:09:06;7.40;99.90
29891;DHT22;16759;49.540;8.642;2022-11-12T15:11:32;7.40;99.90
29891;DHT22;16759;49.540;8.642;2022-11-12T15:14:00;7.30;99.90
29891;DHT22;16759;49.540;8.642;2022-11-12T15:16:33;7.10;99.90
29891;DHT22;16759;49.540;8.642;2022-11-12T15:19:03;7.20;99.90
29891;DHT22;16759;49.540;8.642;2022-11-12T15:21:30;7.20;99.90
29891;DHT22;16759;49.540;8.642;2022-11-12T15:26:40;7.50;99.90
29891;DHT22;16759;49.540;8.642;2022-11-12T15:31:48;7.20;99.90
29891;DHT22;16759;49.540;8.642;2022-11-12T15:36:45;6.90;99.90
29891;DHT22;16759;49.540;8.642;2022-11-12T15:39:11;6.90;99.90
29891;DHT22;16759;49.540;8.642;2022-11-12T15:41:37;6.90;99.90
29891;DHT22;16759;49.540;8.642;2022-11-12T15:44:03;6.90;99.90
29891;DHT22;16759;49.540;8.642;2022-11-12T15:46:29;7.20;99.90
29891;DHT22;16759;49.540;8.642;2022-11-12T15:48:55;7.20;99.90
29891;DHT22;16759;49.540;8.642;2022-11-12T15:51:20;7.10;99.90
29891;DHT22;16759;49.540;8.642;2022-11-12T15:53:46;7.10;99.90
29891;DHT22;16759;49.540;8.642;2022-11-12T15:56:15;7.00;99.90
29891;DHT22;16759;49.540;8.642;2022-11-12T15:58:41;7.30;99.90
29891;DHT22;16759;49.540;8.642;2022-11-12T16:01:06;7.10;99.90
29891;DHT22;16759;49.540;8.642;2022-11-12T16:03:34;7.30;99.90
29891;DHT22;16759;49.540;8.642;2022-11-12T16:06:05;7.30;99.90
29891;DHT22;16759;49.540;8.642;2022-11-12T16:08:30;6.90;99.90
29891;DHT22;16759;49.540;8.642;2022-11-12T16:10:56;7.00;99.90
29891;DHT22;16759;49.540;8.642;2022-11-12T16:13:25;7.10;99.90
29891;DHT22;16759;49.540;8.642;2022-11-12T16:15:51;7.30;99.90
29891;DHT22;16759;49.540;8.642;2022-11-12T16:18:16;7.20;99.90
29891;DHT22;16759;49.540;8.642;2022-11-12T16:20:42;6.90;99.90
29891;DHT22;16759;49.540;8.642;2022-11-12T16:23:07;7.20;99.90
29891;DHT22;16759;49.540;8.642;2022-11-12T16:25:34;7.10;99.90
29891;DHT22;16759;49.540;8.642;2022-11-12T16:27:59;7.10;99.90
29891;DHT22;16759;49.540;8.642;2022-11-12T16:30:30;6.90;99.90
29891;DHT22;16759;49.540;8.642;2022-11-12T16:32:56;6.90;99.90
29891;DHT22;16759;49.540;8.642;2022-11-12T16:35:22;6.90;99.90
29891;DHT22;16759;49.540;8.642;2022-11-12T16:37:48;6.90;99.90
29891;DHT22;16759;49.540;8.642;2022-11-12T16:40:15;6.90;99.90
29891;DHT22;16759;49.540;8.642;2022-11-12T16:42:40;7.00;99.90
29891;DHT22;16759;49.540;8.642;2022-11-12T16:45:17;7.10;99.90
29891;DHT22;16759;49.540;8.642;2022-11-12T16:47:46;7.30;99.90
29891;DHT22;16759;49.540;8.642;2022-11-12T16:50:13;7.10;99.90
29891;DHT22;16759;49.540;8.642;2022-11-12T16:52:39;7.30;99.90
29891;DHT22;16759;49.540;8.642;2022-11-12T16:55:04;7.10;99.90
29891;DHT22;16759;49.540;8.642;2022-11-12T16:57:30;7.10;99.90
29891;DHT22;16759;49.540;8.642;2022-11-12T16:59:56;7.00;99.90
29891;DHT22;16759;49.540;8.642;2022-11-12T17:02:23;6.90;99.90
29891;DHT22;16759;49.540;8.642;2022-11-12T17:04:49;7.20;99.90
29891;DHT22;16759;49.540;8.642;2022-11-12T17:07:17;7.10;99.90
29891;DHT22;16759;49.540;8.642;2022-11-12T17:09:43;7.30;99.90
29891;DHT22;16759;49.540;8.642;2022-11-12T17:12:11;7.30;99.90
29891;DHT22;16759;49.540;8.642;2022-11-12T17:14:36;7.30;99.90
29891;DHT22;16759;49.540;8.642;2022-11-12T17:17:02;7.20;99.90
29891;DHT22;16759;49.540;8.642;2022-11-12T17:19:27;7.40;99.90
29891;DHT22;16759;49.540;8.642;2022-11-12T17:21:53;7.20;99.90
29891;DHT22;16759;49.540;8.642;2022-11-12T17:24:18;7.20;99.90
29891;DHT22;16759;49.540;8.642;2022-11-12T17:26:44;7.40;99.90
29891;DHT22;16759;49.540;8.642;2022-11-12T17:29:10;7.20;99.90
29891;DHT22;16759;49.540;8.642;2022-11-12T17:31:35;7.10;99.90
29891;DHT22;16759;49.540;8.642;2022-11-12T17:34:02;7.40;99.90
29891;DHT22;16759;49.540;8.642;2022-11-12T17:36:28;7.20;99.90
29891;DHT22;16759;49.540;8.642;2022-11-12T17:38:54;7.40;99.90
29891;DHT22;16759;49.540;8.642;2022-11-12T17:41:19;7.60;99.90
29891;DHT22;16759;49.540;8.642;2022-11-12T17:43:45;7.60;99.90
29891;DHT22;16759;49.540;8.642;2022-11-12T17:46:11;7.60;99.90
29891;DHT22;16759;49.540;8.642;2022-11-12T17:48:37;7.40;99.90
29891;DHT22;16759;49.540;8.642;2022-11-12T17:51:05;7.30;99.90
29891;DHT22;16759;49.540;8.642;2022-11-12T17:53:31;7.20;99.90